Sunday, June 26, 2016, 11:58 PM EDT

KRDG, Reading Regional Airport

Location: Reading, PA, United States Lat: 40.367
Local Time: 11:58 PM EDT ( 3:58 GMT) Lon: -75.967
Time Zone: US/Eastern Elev: 344 ft

Show me the last for .
Show Decoded

2016-06-26 22:54 METAR KRDG 270254Z AUTO 16004KT 10SM CLR 22/12 A3013 RMK AO2 SLP205 T02220122
                 53010 =
2016-06-26 21:54 METAR KRDG 270154Z AUTO 18007KT 10SM CLR 24/12 A3012 RMK AO2 SLP200 T02390117 =
2016-06-26 20:54 METAR KRDG 270054Z AUTO 19007KT 10SM CLR 25/12 A3011 RMK AO2 SLP197 T02500122 =
2016-06-26 19:54 METAR KRDG 262354Z AUTO 19008KT 10SM CLR 27/13 A3010 RMK AO2 SLP196 T02670128
                 10306 20267 57014 =
2016-06-26 18:54 METAR KRDG 262254Z AUTO 20010G16KT 10SM CLR 28/13 A3011 RMK AO2 SLP200 T02830128
                 =
2016-06-26 17:54 METAR KRDG 262154Z AUTO 17009KT 10SM SCT065 29/14 A3013 RMK AO2 SLP206 T02890139
                 =
2016-06-26 16:54 METAR KRDG 262054Z AUTO 20009KT 10SM BKN065 29/14 A3014 RMK AO2 SLP210 T02940139
                 56019 =
2016-06-26 15:54 METAR KRDG 261954Z AUTO 18010KT 10SM SCT060 29/14 A3016 RMK AO2 SLP214 T02940139
                 =
2016-06-26 14:54 METAR KRDG 261854Z AUTO 18009G15KT 10SM FEW060 31/13 A3018 RMK AO2 SLP222
                 T03060133 =
2016-06-26 13:54 METAR KRDG 261754Z AUTO 20009KT 10SM SCT060 29/13 A3020 RMK AO2 SLP229 T02890133
                 10300 20211 58007 =
2016-06-26 12:54 METAR KRDG 261654Z AUTO 21005KT 10SM CLR 29/13 A3021 RMK AO2 SLP234 T02890128 =
2016-06-26 11:54 METAR KRDG 261554Z AUTO 26008KT 10SM CLR 28/14 A3022 RMK AO2 SLP236 T02830144 =
2016-06-26 10:54 METAR KRDG 261454Z AUTO 23010KT 10SM CLR 27/13 A3022 RMK AO2 SLP236 T02720128
                 51003 =
2016-06-26 09:54 METAR KRDG 261354Z AUTO 22007KT 10SM CLR 26/13 A3022 RMK AO2 SLP235 T02560128 =
2016-06-26 08:54 METAR KRDG 261254Z AUTO 00000KT 10SM CLR 24/13 A3022 RMK AO2 SLP236 T02390133 =
2016-06-26 07:54 METAR KRDG 261154Z AUTO 00000KT 10SM CLR 21/14 A3021 RMK AO2 SLP233 T02110139
                 10217 20172 58001 =
2016-06-26 06:54 METAR KRDG 261054Z AUTO 00000KT 10SM CLR 18/14 A3022 RMK AO2 SLP236 T01830139 =
2016-06-26 05:54 METAR KRDG 260954Z AUTO 21003KT 10SM CLR 17/12 A3022 RMK AO2 SLP235 T01720122 =
2016-06-26 04:54 METAR KRDG 260854Z AUTO 16004KT 10SM CLR 18/13 A3022 RMK AO2 SLP234 T01830128
                 50007 =
2016-06-26 03:54 METAR KRDG 260754Z AUTO 08003KT 10SM CLR 18/14 A3023 RMK AO2 SLP239 T01780139 =
2016-06-26 02:54 METAR KRDG 260654Z AUTO 35005KT 10SM CLR 19/14 A3022 RMK AO2 SLP237 T01890139 =
2016-06-26 01:54 METAR KRDG 260554Z AUTO 00000KT 10SM CLR 20/13 A3019 RMK AO2 SLP227 T02000133
                 10278 20200 51006 =
2016-06-26 00:54 METAR KRDG 260454Z AUTO 00000KT 10SM CLR 21/14 A3019 RMK AO2 SLP226 T02110144
                 403000167 =

Support USWX by starting your Amazon purchase here.